createdAt,value
2018-04-26T00:01:24.572Z,4.75
2018-04-26T00:03:51.200Z,3.95
2018-04-26T00:06:17.871Z,3.92
2018-04-26T00:08:44.510Z,4.10
2018-04-26T00:11:11.127Z,4.00
2018-04-26T00:13:37.756Z,4.60
2018-04-26T00:16:04.396Z,3.90
2018-04-26T00:18:31.078Z,3.90
2018-04-26T00:20:57.699Z,4.18
2018-04-26T00:23:24.343Z,4.50
2018-04-26T00:25:50.974Z,3.50
2018-04-26T00:28:17.622Z,4.70
2018-04-26T00:30:44.259Z,4.40
2018-04-26T00:33:10.892Z,3.58
2018-04-26T00:35:37.547Z,3.75
2018-04-26T00:38:04.188Z,4.20
2018-04-26T00:40:30.807Z,4.00
2018-04-26T00:42:57.423Z,3.58
2018-04-26T00:45:24.109Z,4.00
2018-04-26T00:47:50.744Z,4.22
2018-04-26T00:50:17.502Z,4.45
2018-04-26T00:52:44.219Z,4.40
2018-04-26T00:55:10.846Z,4.60
2018-04-26T00:57:37.503Z,4.30
2018-04-26T01:00:04.246Z,4.60
2018-04-26T01:02:30.978Z,4.82
2018-04-26T01:04:57.598Z,4.60
2018-04-26T01:07:24.244Z,4.87
2018-04-26T01:09:50.895Z,4.18
2018-04-26T01:12:17.515Z,4.20
2018-04-26T01:14:44.176Z,4.50
2018-04-26T01:17:10.804Z,4.70
2018-04-26T01:19:37.454Z,4.15
2018-04-26T01:22:04.200Z,4.45
2018-04-26T01:24:30.840Z,5.60
2018-04-26T01:26:57.455Z,3.70
2018-04-26T01:29:24.099Z,3.90
2018-04-26T01:31:50.751Z,4.62
2018-04-26T01:34:17.392Z,3.70
2018-04-26T01:36:49.920Z,3.47
2018-04-26T01:39:16.499Z,4.10
2018-04-26T01:41:43.155Z,3.50
2018-04-26T01:44:09.796Z,3.33
2018-04-26T01:46:36.527Z,3.80
2018-04-26T01:49:03.163Z,3.80
2018-04-26T01:51:29.807Z,4.07
2018-04-26T01:53:56.432Z,4.40
2018-04-26T01:56:23.087Z,4.15
2018-04-26T01:58:49.724Z,3.70
2018-04-26T02:01:16.339Z,4.40
2018-04-26T02:03:42.998Z,5.10
2018-04-26T02:06:09.742Z,4.20
2018-04-26T02:08:36.359Z,5.40
2018-04-26T02:11:02.990Z,4.40
2018-04-26T02:13:29.627Z,4.45
2018-04-26T02:15:56.303Z,5.37
2018-04-26T02:18:22.948Z,5.60
2018-04-26T02:20:49.679Z,4.72
2018-04-26T02:23:16.302Z,5.20
2018-04-26T02:25:42.967Z,5.90
2018-04-26T02:28:09.703Z,4.47
2018-04-26T02:30:36.438Z,5.30
2018-04-26T02:33:03.083Z,5.05
2018-04-26T02:35:29.724Z,4.72
2018-04-26T02:37:56.352Z,5.30
2018-04-26T02:40:22.966Z,5.15
2018-04-26T02:42:49.634Z,5.82
2018-04-26T02:45:16.255Z,4.28
2018-04-26T02:47:42.881Z,4.75
2018-04-26T02:50:09.539Z,4.20
2018-04-26T02:52:36.200Z,5.70
2018-04-26T02:55:02.935Z,4.50
2018-04-26T02:57:29.576Z,4.85
2018-04-26T02:59:56.219Z,4.25
2018-04-26T03:02:22.841Z,4.90
2018-04-26T03:04:49.581Z,4.57
2018-04-26T03:07:16.206Z,4.55
2018-04-26T03:09:42.842Z,4.35
2018-04-26T03:12:09.489Z,4.65
2018-04-26T03:14:36.146Z,5.65
2018-04-26T03:17:02.793Z,5.45
2018-04-26T03:19:29.438Z,4.47
2018-04-26T03:21:56.059Z,4.87
2018-04-26T03:24:22.676Z,4.90
2018-04-26T03:26:49.311Z,4.93
2018-04-26T03:29:15.926Z,5.03
2018-04-26T03:31:42.542Z,4.40
2018-04-26T03:34:09.289Z,5.00
2018-04-26T03:36:35.915Z,4.75
2018-04-26T03:39:02.552Z,5.75
2018-04-26T03:41:29.187Z,4.32
2018-04-26T03:43:55.920Z,5.00
2018-04-26T03:46:22.534Z,4.03
2018-04-26T03:48:49.197Z,4.45
2018-04-26T03:51:15.819Z,4.40
2018-04-26T03:53:42.481Z,3.90
2018-04-26T03:56:09.143Z,4.40
2018-04-26T03:58:35.771Z,3.90
2018-04-26T04:01:08.340Z,5.05
2018-04-26T04:03:40.911Z,4.85
2018-04-26T04:06:13.412Z,4.25
2018-04-26T04:08:40.132Z,4.68
2018-04-26T04:11:06.757Z,4.10
2018-04-26T04:13:33.403Z,3.75
2018-04-26T04:16:00.029Z,4.35
2018-04-26T04:18:26.655Z,4.40
2018-04-26T04:20:53.285Z,4.00
2018-04-26T04:23:19.911Z,4.78
2018-04-26T04:25:46.607Z,3.87
2018-04-26T04:28:13.247Z,3.55
2018-04-26T04:30:39.873Z,4.12
2018-04-26T04:33:06.495Z,3.30
2018-04-26T04:35:33.130Z,3.70
2018-04-26T04:37:59.790Z,3.08
2018-04-26T04:40:26.439Z,3.40
2018-04-26T04:42:53.177Z,3.30
2018-04-26T04:45:19.824Z,3.60
2018-04-26T04:47:47.339Z,4.07
2018-04-26T04:50:13.971Z,3.40
2018-04-26T04:52:40.596Z,3.20
2018-04-26T04:55:07.218Z,3.45
2018-04-26T04:57:33.846Z,3.40
2018-04-26T05:00:00.463Z,3.15
2018-04-26T05:02:27.106Z,3.33
2018-04-26T05:04:53.846Z,4.65
2018-04-26T05:07:20.560Z,3.65
2018-04-26T05:09:47.120Z,3.58
2018-04-26T05:12:13.815Z,2.97
2018-04-26T05:14:40.440Z,3.60
2018-04-26T05:17:07.054Z,3.08
2018-04-26T05:19:33.682Z,4.72
2018-04-26T05:22:00.313Z,3.50
2018-04-26T05:24:26.980Z,3.45
2018-04-26T05:26:53.745Z,3.08
2018-04-26T05:29:20.371Z,3.37
2018-04-26T05:31:47.001Z,3.50
2018-04-26T05:34:13.753Z,3.83
2018-04-26T05:36:40.493Z,3.50
2018-04-26T05:39:07.206Z,2.97
2018-04-26T05:41:33.956Z,3.08
2018-04-26T05:44:00.579Z,2.92
2018-04-26T05:46:27.203Z,3.60
2018-04-26T05:48:53.869Z,3.58
2018-04-26T05:51:20.507Z,3.50
2018-04-26T05:53:47.152Z,3.70
2018-04-26T05:56:13.795Z,3.20
2018-04-26T05:58:40.415Z,3.47
2018-04-26T06:01:07.040Z,3.42
2018-04-26T06:03:33.771Z,3.72
2018-04-26T06:06:00.370Z,3.70
2018-04-26T06:08:27.088Z,3.42
2018-04-26T06:10:53.720Z,2.95
2018-04-26T06:13:20.365Z,3.95
2018-04-26T06:15:47.009Z,3.30
2018-04-26T06:18:13.744Z,3.20
2018-04-26T06:20:40.387Z,3.10
2018-04-26T06:23:07.135Z,3.67
2018-04-26T06:25:33.766Z,3.60
2018-04-26T06:28:00.391Z,3.10
2018-04-26T06:30:27.011Z,3.30
2018-04-26T06:32:53.652Z,3.70
2018-04-26T06:35:20.736Z,3.45
2018-04-26T06:37:47.483Z,2.90
2018-04-26T06:40:14.220Z,3.35
2018-04-26T06:42:40.838Z,2.80
2018-04-26T06:45:07.491Z,2.30
2018-04-26T06:47:34.150Z,3.08
2018-04-26T06:50:00.776Z,2.75
2018-04-26T06:52:27.506Z,3.53
2018-04-26T06:54:54.147Z,3.75
2018-04-26T06:57:20.772Z,2.75
2018-04-26T06:59:47.399Z,2.60
2018-04-26T07:02:14.035Z,2.78
2018-04-26T07:04:40.671Z,2.40
2018-04-26T07:07:07.296Z,2.47
2018-04-26T07:09:33.987Z,3.00
2018-04-26T07:12:00.722Z,2.85
2018-04-26T07:14:27.392Z,2.90
2018-04-26T07:16:54.039Z,2.95
2018-04-26T07:19:20.667Z,2.90
2018-04-26T07:21:47.368Z,2.70
2018-04-26T07:24:13.935Z,3.30
2018-04-26T07:26:40.565Z,2.40
2018-04-26T07:29:07.208Z,2.65
2018-04-26T07:31:33.855Z,2.80
2018-04-26T07:34:00.479Z,2.90
2018-04-26T07:36:27.103Z,2.78
2018-04-26T07:38:53.748Z,3.15
2018-04-26T07:41:20.389Z,3.55
2018-04-26T07:43:47.031Z,3.35
2018-04-26T07:46:13.770Z,2.78
2018-04-26T07:48:40.392Z,3.58
2018-04-26T07:51:07.028Z,2.70
2018-04-26T07:53:33.668Z,2.70
2018-04-26T07:56:00.291Z,2.90
2018-04-26T07:58:26.915Z,3.47
2018-04-26T08:00:53.547Z,2.85
2018-04-26T08:03:20.162Z,2.20
2018-04-26T08:05:46.788Z,2.50
2018-04-26T08:08:13.519Z,3.35
2018-04-26T08:10:40.149Z,4.20
2018-04-26T08:13:06.777Z,2.53
2018-04-26T08:15:33.413Z,2.78
2018-04-26T08:18:00.031Z,2.60
2018-04-26T08:20:26.656Z,2.90
2018-04-26T08:22:53.386Z,2.67
2018-04-26T08:25:20.112Z,2.17
2018-04-26T08:27:46.740Z,2.47
2018-04-26T08:30:13.375Z,2.33
2018-04-26T08:32:40.005Z,2.92
2018-04-26T08:35:06.662Z,2.95
2018-04-26T08:37:33.395Z,2.45
2018-04-26T08:40:00.021Z,2.55
2018-04-26T08:42:26.648Z,2.35
2018-04-26T08:44:53.320Z,3.12
2018-04-26T08:47:19.956Z,2.45
2018-04-26T08:49:46.576Z,2.00
2018-04-26T08:52:13.251Z,1.77
2018-04-26T08:54:39.876Z,2.40
2018-04-26T08:57:06.512Z,1.98
2018-04-26T08:59:33.179Z,2.78
2018-04-26T09:01:59.814Z,2.30
2018-04-26T09:04:26.523Z,2.20
2018-04-26T09:06:53.162Z,2.90
2018-04-26T09:09:19.780Z,1.98
2018-04-26T09:11:46.403Z,2.20
2018-04-26T09:14:13.040Z,1.90
2018-04-26T09:16:39.747Z,2.20
2018-04-26T09:19:06.494Z,2.35
2018-04-26T09:21:33.212Z,1.85
2018-04-26T09:23:59.955Z,1.83
2018-04-26T09:26:26.579Z,2.10
2018-04-26T09:28:53.216Z,2.03
2018-04-26T09:31:19.832Z,2.03
2018-04-26T09:33:46.507Z,1.85
2018-04-26T09:36:13.232Z,1.90
2018-04-26T09:38:39.881Z,1.45
2018-04-26T09:41:06.530Z,1.80
2018-04-26T09:43:33.189Z,1.60
2018-04-26T09:45:59.913Z,1.77
2018-04-26T09:48:26.534Z,2.05
2018-04-26T09:50:53.169Z,1.60
2018-04-26T09:53:19.822Z,1.90
2018-04-26T09:55:46.447Z,1.50
2018-04-26T09:58:13.087Z,1.70
2018-04-26T10:00:42.555Z,1.85
2018-04-26T10:03:09.273Z,2.05
2018-04-26T10:05:56.584Z,2.20
2018-04-26T10:08:23.208Z,1.58
2018-04-26T10:10:49.824Z,1.60
2018-04-26T10:13:16.492Z,1.92
2018-04-26T10:15:43.179Z,1.80
2018-04-26T10:18:09.797Z,1.67
2018-04-26T10:20:36.540Z,1.40
2018-04-26T10:23:03.249Z,1.70
2018-04-26T10:25:29.891Z,2.22
2018-04-26T10:27:56.541Z,1.62
2018-04-26T10:30:23.162Z,1.58
2018-04-26T10:32:49.787Z,1.05
2018-04-26T10:35:16.468Z,2.25
2018-04-26T10:37:43.153Z,1.80
2018-04-26T10:40:09.787Z,1.85
2018-04-26T10:42:36.423Z,1.87
2018-04-26T10:45:04.562Z,1.85
2018-04-26T10:47:31.814Z,1.87
2018-04-26T10:49:59.067Z,2.08
2018-04-26T10:52:26.100Z,2.95
2018-04-26T10:54:53.191Z,1.52
2018-04-26T10:57:20.727Z,1.67
2018-04-26T10:59:47.979Z,1.55
2018-04-26T11:02:15.129Z,2.42
2018-04-26T11:04:41.975Z,1.52
2018-04-26T11:07:08.920Z,2.03
2018-04-26T11:09:35.660Z,1.95
2018-04-26T11:12:02.375Z,1.80
2018-04-26T11:14:28.990Z,1.58
2018-04-26T11:16:55.630Z,1.73
2018-04-26T11:19:22.364Z,1.48
2018-04-26T11:21:49.082Z,1.45
2018-04-26T11:24:15.792Z,4.40
2018-04-26T11:26:42.524Z,3.22
2018-04-26T11:29:09.182Z,2.75
2018-04-26T11:31:35.812Z,1.62
2018-04-26T11:34:02.538Z,1.65
2018-04-26T11:36:29.167Z,1.87
2018-04-26T11:38:55.823Z,1.70
2018-04-26T11:41:22.564Z,4.82
2018-04-26T11:43:49.195Z,19.23
2018-04-26T11:46:15.815Z,3.12
2018-04-26T11:48:42.446Z,2.75
2018-04-26T11:51:09.114Z,1.77
2018-04-26T11:53:35.741Z,1.23
2018-04-26T11:56:02.494Z,1.30
2018-04-26T11:58:29.114Z,1.75
2018-04-26T12:00:55.755Z,8.50
2018-04-26T12:03:22.402Z,1.30
2018-04-26T12:05:49.018Z,1.40
2018-04-26T12:08:15.646Z,1.00
2018-04-26T12:10:42.288Z,1.30
2018-04-26T12:13:08.933Z,0.85
2018-04-26T12:15:35.560Z,1.50
2018-04-26T12:18:02.247Z,1.45
2018-04-26T12:20:28.896Z,1.65
2018-04-26T12:22:55.624Z,1.40
2018-04-26T12:25:22.262Z,1.42
2018-04-26T12:27:48.881Z,1.10
2018-04-26T12:30:15.677Z,1.23
2018-04-26T12:32:42.535Z,1.30
2018-04-26T12:35:09.467Z,1.30
2018-04-26T12:37:36.081Z,1.50
2018-04-26T12:40:02.815Z,1.42
2018-04-26T12:42:29.553Z,1.52
2018-04-26T12:44:56.127Z,1.10
2018-04-26T12:47:22.767Z,1.70
2018-04-26T12:49:49.485Z,0.90
2018-04-26T12:52:16.141Z,1.52
2018-04-26T12:54:42.784Z,1.00
2018-04-26T12:57:09.407Z,0.90
2018-04-26T12:59:36.031Z,0.80
2018-04-26T13:02:02.671Z,5.05
2018-04-26T13:04:29.302Z,1.50
2018-04-26T13:06:55.923Z,1.08
2018-04-26T13:09:22.597Z,2.55
2018-04-26T13:11:49.218Z,1.98
2018-04-26T13:14:15.848Z,2.53
2018-04-26T13:16:42.531Z,1.60
2018-04-26T13:19:09.248Z,1.85
2018-04-26T13:21:35.879Z,1.40
2018-04-26T13:24:02.519Z,1.83
2018-04-26T13:26:29.168Z,1.20
2018-04-26T13:28:55.800Z,1.10
2018-04-26T13:31:22.554Z,0.82
2018-04-26T13:33:49.180Z,0.70
2018-04-26T13:36:15.815Z,2.20
2018-04-26T13:38:42.558Z,10.85
2018-04-26T13:41:09.230Z,4.53
2018-04-26T13:43:35.972Z,1.02
2018-04-26T13:46:02.646Z,2.62
2018-04-26T13:48:29.264Z,1.80
2018-04-26T13:50:56.015Z,1.55
2018-04-26T13:53:22.703Z,1.17
2018-04-26T13:55:49.318Z,2.55
2018-04-26T13:58:15.933Z,0.75
2018-04-26T14:00:42.600Z,0.73
2018-04-26T14:03:09.255Z,1.48
2018-04-26T14:05:35.947Z,0.82
2018-04-26T14:08:02.534Z,1.23
2018-04-26T14:10:29.174Z,2.72
2018-04-26T14:12:55.820Z,6.87
2018-04-26T14:15:22.454Z,1.00
2018-04-26T14:17:49.083Z,0.70
2018-04-26T14:20:15.736Z,5.85
2018-04-26T14:22:42.470Z,1.33
2018-04-26T14:25:09.125Z,1.87
2018-04-26T14:27:35.752Z,1.12
2018-04-26T14:30:02.399Z,1.08
2018-04-26T14:32:29.030Z,4.45
2018-04-26T14:34:55.646Z,2.75
2018-04-26T14:37:22.423Z,1.95
2018-04-26T14:39:48.974Z,2.12
2018-04-26T14:42:15.689Z,1.40
2018-04-26T14:44:42.437Z,2.30
2018-04-26T14:47:09.076Z,0.90
2018-04-26T14:49:35.883Z,6.12
2018-04-26T14:52:02.459Z,0.50
2018-04-26T14:54:29.083Z,1.08
2018-04-26T14:56:55.745Z,2.67
2018-04-26T14:59:22.382Z,1.10
2018-04-26T15:01:49.003Z,1.75
2018-04-26T15:04:15.622Z,0.95
2018-04-26T15:06:42.259Z,1.23
2018-04-26T15:09:08.875Z,1.00
2018-04-26T15:11:35.559Z,1.05
2018-04-26T15:14:02.210Z,1.17
2018-04-26T15:16:28.831Z,1.27
2018-04-26T15:18:55.489Z,0.93
2018-04-26T15:21:22.142Z,0.88
2018-04-26T15:23:48.860Z,0.80
2018-04-26T15:26:15.493Z,0.88
2018-04-26T15:28:42.244Z,0.80
2018-04-26T15:31:08.868Z,0.75
2018-04-26T15:33:35.505Z,0.80
2018-04-26T15:36:02.138Z,0.50
2018-04-26T15:38:28.758Z,0.90
2018-04-26T15:40:55.384Z,3.53
2018-04-26T15:43:22.074Z,2.30
2018-04-26T15:45:48.695Z,2.35
2018-04-26T15:48:15.316Z,0.80
2018-04-26T15:50:56.843Z,1.58
2018-04-26T15:53:29.525Z,1.25
2018-04-26T15:56:02.009Z,1.25
2018-04-26T15:58:43.666Z,1.05
2018-04-26T16:01:21.947Z,1.42
2018-04-26T16:03:54.379Z,1.73
2018-04-26T16:06:29.355Z,1.45
2018-04-26T16:09:01.882Z,1.35
2018-04-26T16:11:34.365Z,1.87
2018-04-26T16:14:06.870Z,1.23
2018-04-26T16:16:45.440Z,5.80
2018-04-26T16:19:27.736Z,1.50
2018-04-26T16:22:06.312Z,1.80
2018-04-26T16:24:44.917Z,1.83
2018-04-26T16:27:23.328Z,2.05
2018-04-26T16:29:55.775Z,1.70
2018-04-26T16:32:34.256Z,1.75
2018-04-26T16:35:12.498Z,3.17
2018-04-26T16:37:50.836Z,1.62
2018-04-26T16:40:17.462Z,1.50
2018-04-26T16:42:44.081Z,1.80
2018-04-26T16:45:11.612Z,2.30
2018-04-26T16:47:38.232Z,1.90
2018-04-26T16:50:04.959Z,1.52
2018-04-26T16:52:31.604Z,1.98
2018-04-26T16:54:58.339Z,2.08
2018-04-26T16:57:24.955Z,2.20
2018-04-26T16:59:51.714Z,1.95
2018-04-26T17:02:18.251Z,1.87
2018-04-26T17:04:44.907Z,1.80
2018-04-26T17:07:11.642Z,2.03
2018-04-26T17:09:38.271Z,2.00
2018-04-26T17:12:04.895Z,2.08
2018-04-26T17:14:31.652Z,2.20
2018-04-26T17:16:58.353Z,1.60
2018-04-26T17:19:24.911Z,1.67
2018-04-26T17:21:51.543Z,1.90
2018-04-26T17:24:18.178Z,1.98
2018-04-26T17:26:44.805Z,4.37
2018-04-26T17:29:11.438Z,2.00
2018-04-26T17:31:38.060Z,1.67
2018-04-26T17:34:04.674Z,2.40
2018-04-26T17:36:31.320Z,1.85
2018-04-26T17:38:57.988Z,1.65
2018-04-26T17:41:24.674Z,2.10
2018-04-26T17:43:51.498Z,1.85
2018-04-26T17:46:18.163Z,2.28
2018-04-26T17:48:44.794Z,1.98
2018-04-26T17:51:11.435Z,2.33
2018-04-26T17:53:38.056Z,2.15
2018-04-26T17:56:04.719Z,2.00
2018-04-26T17:58:31.462Z,2.10
2018-04-26T18:00:58.097Z,2.10
2018-04-26T18:03:24.718Z,2.12
2018-04-26T18:05:51.352Z,2.22
2018-04-26T18:08:17.971Z,2.00
2018-04-26T18:10:44.656Z,2.35
2018-04-26T18:13:11.391Z,2.65
2018-04-26T18:15:38.019Z,2.10
2018-04-26T18:18:04.649Z,2.40
2018-04-26T18:20:31.282Z,2.20
2018-04-26T18:22:57.905Z,2.33
2018-04-26T18:25:24.587Z,2.33
2018-04-26T18:27:51.230Z,2.30
2018-04-26T18:30:17.846Z,2.47
2018-04-26T18:32:44.466Z,2.67
2018-04-26T18:35:11.100Z,2.45
2018-04-26T18:37:37.792Z,2.40
2018-04-26T18:40:04.411Z,2.70
2018-04-26T18:42:31.052Z,2.50
2018-04-26T18:44:57.689Z,2.20
2018-04-26T18:47:24.319Z,3.47
2018-04-26T18:49:50.987Z,2.75
2018-04-26T18:52:17.602Z,2.60
2018-04-26T18:54:44.255Z,2.40
2018-04-26T18:57:11.024Z,2.67
2018-04-26T18:59:37.637Z,2.90
2018-04-26T19:02:04.388Z,2.70
2018-04-26T19:04:31.032Z,2.78
2018-04-26T19:06:57.768Z,3.40
2018-04-26T19:09:24.508Z,2.70
2018-04-26T19:11:51.242Z,2.50
2018-04-26T19:14:17.857Z,3.47
2018-04-26T19:16:44.519Z,2.87
2018-04-26T19:19:11.156Z,3.37
2018-04-26T19:21:37.784Z,3.53
2018-04-26T19:24:04.407Z,3.67
2018-04-26T19:26:31.042Z,3.42
2018-04-26T19:28:57.717Z,3.80
2018-04-26T19:31:24.339Z,3.78
2018-04-26T19:33:51.002Z,3.53
2018-04-26T19:36:17.743Z,3.33
2018-04-26T19:38:44.475Z,3.08
2018-04-26T19:41:11.212Z,3.10
2018-04-26T19:43:37.856Z,3.28
2018-04-26T19:46:04.485Z,3.20
2018-04-26T19:48:31.126Z,3.60
2018-04-26T19:50:57.752Z,3.75
2018-04-26T19:53:24.410Z,3.90
2018-04-26T19:55:51.155Z,4.68
2018-04-26T19:58:17.773Z,4.90
2018-04-26T20:00:44.434Z,5.43
2018-04-26T20:03:11.074Z,4.75
2018-04-26T20:05:37.700Z,4.90
2018-04-26T20:08:04.324Z,4.47
2018-04-26T20:10:30.991Z,4.30
2018-04-26T20:12:57.631Z,4.37
2018-04-26T20:15:24.254Z,6.30
2018-04-26T20:17:50.891Z,4.78
2018-04-26T20:20:17.555Z,4.60
2018-04-26T20:22:44.186Z,4.62
2018-04-26T20:25:10.942Z,4.22
2018-04-26T20:27:37.572Z,3.97
2018-04-26T20:30:04.302Z,4.18
2018-04-26T20:32:30.933Z,4.30
2018-04-26T20:34:57.552Z,4.00
2018-04-26T20:37:24.230Z,3.80
2018-04-26T20:39:50.869Z,4.82
2018-04-26T20:42:17.487Z,4.15
2018-04-26T20:44:47.995Z,4.53
2018-04-26T20:47:14.681Z,5.30
2018-04-26T20:49:41.410Z,4.37
2018-04-26T20:52:08.062Z,4.68
2018-04-26T20:54:34.694Z,4.65
2018-04-26T20:57:01.324Z,4.47
2018-04-26T20:59:27.975Z,4.40
2018-04-26T21:01:54.611Z,4.57
2018-04-26T21:04:21.247Z,4.65
2018-04-26T21:06:47.896Z,5.75
2018-04-26T21:09:14.637Z,4.45
2018-04-26T21:11:41.262Z,4.70
2018-04-26T21:14:07.979Z,4.12
2018-04-26T21:16:34.678Z,4.03
2018-04-26T21:19:01.394Z,4.35
2018-04-26T21:21:28.024Z,5.12
2018-04-26T21:23:54.770Z,4.18
2018-04-26T21:26:21.393Z,5.07
2018-04-26T21:28:48.011Z,4.43
2018-04-26T21:31:14.663Z,4.30
2018-04-26T21:33:41.299Z,4.80
2018-04-26T21:36:07.972Z,4.53
2018-04-26T21:38:34.616Z,4.70
2018-04-26T21:41:01.245Z,4.75
2018-04-26T21:43:27.871Z,5.75
2018-04-26T21:45:54.527Z,4.78
2018-04-26T21:48:21.143Z,4.07
2018-04-26T21:50:53.379Z,4.70
2018-04-26T21:53:25.868Z,4.60
2018-04-26T21:55:58.319Z,4.43
2018-04-26T21:58:30.839Z,3.78
2018-04-26T22:01:03.163Z,4.80
2018-04-26T22:03:35.391Z,4.75
2018-04-26T22:06:02.013Z,4.80
2018-04-26T22:08:28.647Z,4.93
2018-04-26T22:10:55.296Z,5.35
2018-04-26T22:13:21.918Z,6.03
2018-04-26T22:15:48.543Z,6.20
2018-04-26T22:18:15.183Z,6.68
2018-04-26T22:20:41.875Z,6.90
2018-04-26T22:23:08.495Z,6.50
2018-04-26T22:25:35.159Z,8.02
2018-04-26T22:28:01.897Z,7.82
2018-04-26T22:30:28.513Z,7.45
2018-04-26T22:32:55.159Z,7.43
2018-04-26T22:35:21.816Z,7.68
2018-04-26T22:37:48.560Z,7.80
2018-04-26T22:40:15.199Z,7.03
2018-04-26T22:42:41.832Z,7.10
2018-04-26T22:45:08.470Z,6.93
2018-04-26T22:47:35.111Z,7.10
2018-04-26T22:50:01.859Z,7.45
2018-04-26T22:52:28.485Z,8.30
2018-04-26T22:54:55.123Z,7.57
2018-04-26T22:57:21.738Z,7.40
2018-04-26T22:59:48.368Z,6.30
2018-04-26T23:02:15.011Z,6.18
2018-04-26T23:04:41.686Z,6.43
2018-04-26T23:07:08.312Z,6.10
2018-04-26T23:09:35.068Z,6.40
2018-04-26T23:12:01.809Z,6.95
2018-04-26T23:14:28.434Z,8.27
2018-04-26T23:16:55.067Z,7.80
2018-04-26T23:19:21.687Z,7.72
2018-04-26T23:21:48.363Z,7.28
2018-04-26T23:24:15.005Z,7.97
2018-04-26T23:26:41.668Z,6.90
2018-04-26T23:29:08.383Z,7.12
2018-04-26T23:31:35.015Z,6.78
2018-04-26T23:34:01.639Z,6.35
2018-04-26T23:36:28.255Z,6.65
2018-04-26T23:38:54.943Z,6.00
2018-04-26T23:41:21.564Z,6.60
2018-04-26T23:43:48.222Z,7.03
2018-04-26T23:46:14.855Z,7.70
2018-04-26T23:48:41.474Z,8.55
2018-04-26T23:51:08.100Z,8.10
2018-04-26T23:53:34.770Z,8.57
2018-04-26T23:56:01.393Z,8.38
2018-04-26T23:58:28.022Z,9.05
